Au Sable Forks, New York
Current Conditions -  °F | °C
As of 8:08 PM on Wednesday 17 Dec 2014 (Local Time) from KPBG Reporting Station
Moderate Fog Moderate Fog  
Wind Chill: 35°   Ceiling: 4100
Heat Index: 35°   Visibility: 0.5mi
Dew Point: 34°   Wind: 3mph
Humidity: 96%   Direction: 340°NNW
Pressure: 29.77"   Gusts: NA
Location:  44.44°N, 73.67°W
Report Text: KPBG 180108Z AUTO 34003KT 1/2SM FG SCT003 BKN041 OVC060 02/01 A2977 RMK AO2 T00170011
Loading
Personal Weather Stations






























Interactive Weather Map New forecast layout! Learn more

10-Day Weather Forecast

Advertisements
Track Severe Weather on mobile